sensor_id;sensor_type;location;lat;lon;timestamp;temperature;humidity
7814;DHT22;3952;48.364;16.022;2022-07-06T00:01:58;16.50;99.90
7814;DHT22;3952;48.364;16.022;2022-07-06T00:04:25;16.50;99.90
7814;DHT22;3952;48.364;16.022;2022-07-06T00:06:52;16.50;99.90
7814;DHT22;3952;48.364;16.022;2022-07-06T00:09:19;16.50;99.90
7814;DHT22;3952;48.364;16.022;2022-07-06T00:11:47;16.50;99.90
7814;DHT22;3952;48.364;16.022;2022-07-06T00:14:14;16.50;99.90
7814;DHT22;3952;48.364;16.022;2022-07-06T00:16:41;16.40;99.90
7814;DHT22;3952;48.364;16.022;2022-07-06T00:19:10;16.40;99.90
7814;DHT22;3952;48.364;16.022;2022-07-06T00:21:37;16.40;99.90
7814;DHT22;3952;48.364;16.022;2022-07-06T00:24:05;16.40;99.90
7814;DHT22;3952;48.364;16.022;2022-07-06T00:26:32;16.40;99.90
7814;DHT22;3952;48.364;16.022;2022-07-06T00:29:00;16.40;99.90
7814;DHT22;3952;48.364;16.022;2022-07-06T00:31:27;16.40;99.90
7814;DHT22;3952;48.364;16.022;2022-07-06T00:33:54;16.40;99.90
7814;DHT22;3952;48.364;16.022;2022-07-06T00:36:22;16.50;99.90
7814;DHT22;3952;48.364;16.022;2022-07-06T00:38:50;16.50;99.90
7814;DHT22;3952;48.364;16.022;2022-07-06T00:41:17;16.60;99.90
7814;DHT22;3952;48.364;16.022;2022-07-06T00:43:48;16.60;99.90
7814;DHT22;3952;48.364;16.022;2022-07-06T00:46:17;16.60;99.90
7814;DHT22;3952;48.364;16.022;2022-07-06T00:48:44;16.70;99.90
7814;DHT22;3952;48.364;16.022;2022-07-06T00:51:11;16.70;99.90
7814;DHT22;3952;48.364;16.022;2022-07-06T00:53:40;16.80;99.90
7814;DHT22;3952;48.364;16.022;2022-07-06T00:56:08;16.80;99.90
7814;DHT22;3952;48.364;16.022;2022-07-06T00:58:36;16.80;99.90
7814;DHT22;3952;48.364;16.022;2022-07-06T01:01:03;16.90;99.90
7814;DHT22;3952;48.364;16.022;2022-07-06T01:03:30;16.90;99.90
7814;DHT22;3952;48.364;16.022;2022-07-06T01:05:59;16.90;99.90
7814;DHT22;3952;48.364;16.022;2022-07-06T01:08:26;16.90;99.90
7814;DHT22;3952;48.364;16.022;2022-07-06T01:10:55;16.90;99.90
7814;DHT22;3952;48.364;16.022;2022-07-06T01:13:22;16.90;99.90
7814;DHT22;3952;48.364;16.022;2022-07-06T01:15:49;16.90;99.90
7814;DHT22;3952;48.364;16.022;2022-07-06T01:18:17;17.00;99.90
7814;DHT22;3952;48.364;16.022;2022-07-06T01:20:46;17.00;99.90
7814;DHT22;3952;48.364;16.022;2022-07-06T01:23:13;17.00;99.90
7814;DHT22;3952;48.364;16.022;2022-07-06T01:25:40;17.00;99.90
7814;DHT22;3952;48.364;16.022;2022-07-06T01:28:07;17.00;99.90
7814;DHT22;3952;48.364;16.022;2022-07-06T01:30:34;16.90;99.90
7814;DHT22;3952;48.364;16.022;2022-07-06T01:33:02;16.90;99.90
7814;DHT22;3952;48.364;16.022;2022-07-06T01:35:32;16.80;99.90
7814;DHT22;3952;48.364;16.022;2022-07-06T01:38:02;16.70;99.90
7814;DHT22;3952;48.364;16.022;2022-07-06T01:40:29;16.70;99.90
7814;DHT22;3952;48.364;16.022;2022-07-06T01:42:57;16.70;99.90
7814;DHT22;3952;48.364;16.022;2022-07-06T01:45:24;16.60;99.90
7814;DHT22;3952;48.364;16.022;2022-07-06T01:47:51;16.70;99.90
7814;DHT22;3952;48.364;16.022;2022-07-06T01:50:18;16.70;99.90
7814;DHT22;3952;48.364;16.022;2022-07-06T01:52:46;16.70;99.90
7814;DHT22;3952;48.364;16.022;2022-07-06T01:55:14;16.70;99.90
7814;DHT22;3952;48.364;16.022;2022-07-06T01:57:41;16.80;99.90
7814;DHT22;3952;48.364;16.022;2022-07-06T02:00:09;16.80;99.90
7814;DHT22;3952;48.364;16.022;2022-07-06T02:02:36;16.80;99.90
7814;DHT22;3952;48.364;16.022;2022-07-06T02:05:04;16.80;99.90
7814;DHT22;3952;48.364;16.022;2022-07-06T02:07:31;16.80;99.90
7814;DHT22;3952;48.364;16.022;2022-07-06T02:09:58;16.80;99.90
7814;DHT22;3952;48.364;16.022;2022-07-06T02:12:27;16.70;99.90
7814;DHT22;3952;48.364;16.022;2022-07-06T02:14:54;16.70;99.90
7814;DHT22;3952;48.364;16.022;2022-07-06T02:17:21;16.70;99.90
7814;DHT22;3952;48.364;16.022;2022-07-06T02:19:48;16.60;99.90
7814;DHT22;3952;48.364;16.022;2022-07-06T02:22:15;16.60;99.90
7814;DHT22;3952;48.364;16.022;2022-07-06T02:24:43;16.50;99.90
7814;DHT22;3952;48.364;16.022;2022-07-06T02:27:10;16.40;99.90
7814;DHT22;3952;48.364;16.022;2022-07-06T02:29:38;16.40;99.90
7814;DHT22;3952;48.364;16.022;2022-07-06T02:32:06;16.40;99.90
7814;DHT22;3952;48.364;16.022;2022-07-06T02:34:34;16.40;99.90
7814;DHT22;3952;48.364;16.022;2022-07-06T02:37:01;16.30;99.90
7814;DHT22;3952;48.364;16.022;2022-07-06T02:39:28;16.30;99.90
7814;DHT22;3952;48.364;16.022;2022-07-06T02:41:55;16.30;99.90
7814;DHT22;3952;48.364;16.022;2022-07-06T02:44:22;16.20;99.90
7814;DHT22;3952;48.364;16.022;2022-07-06T02:46:51;16.20;99.90
7814;DHT22;3952;48.364;16.022;2022-07-06T02:49:18;16.10;99.90
7814;DHT22;3952;48.364;16.022;2022-07-06T02:51:45;16.10;99.90
7814;DHT22;3952;48.364;16.022;2022-07-06T02:54:13;16.10;99.90
7814;DHT22;3952;48.364;16.022;2022-07-06T02:56:40;16.10;99.90
7814;DHT22;3952;48.364;16.022;2022-07-06T02:59:07;16.10;99.90
7814;DHT22;3952;48.364;16.022;2022-07-06T03:01:34;16.10;99.90
7814;DHT22;3952;48.364;16.022;2022-07-06T03:04:03;16.10;99.90
7814;DHT22;3952;48.364;16.022;2022-07-06T03:06:30;16.10;99.90
7814;DHT22;3952;48.364;16.022;2022-07-06T03:08:57;16.10;99.90
7814;DHT22;3952;48.364;16.022;2022-07-06T03:11:24;16.00;99.90
7814;DHT22;3952;48.364;16.022;2022-07-06T03:13:51;16.00;99.90
7814;DHT22;3952;48.364;16.022;2022-07-06T03:16:19;16.00;99.90
7814;DHT22;3952;48.364;16.022;2022-07-06T03:18:46;16.00;99.90
7814;DHT22;3952;48.364;16.022;2022-07-06T03:21:14;16.00;99.90
7814;DHT22;3952;48.364;16.022;2022-07-06T03:23:42;16.00;99.90
7814;DHT22;3952;48.364;16.022;2022-07-06T03:26:10;15.90;99.90
7814;DHT22;3952;48.364;16.022;2022-07-06T03:28:37;15.90;99.90
7814;DHT22;3952;48.364;16.022;2022-07-06T03:31:04;15.90;99.90
7814;DHT22;3952;48.364;16.022;2022-07-06T03:33:32;15.90;99.90
7814;DHT22;3952;48.364;16.022;2022-07-06T03:35:59;15.90;99.90
7814;DHT22;3952;48.364;16.022;2022-07-06T03:38:28;15.90;99.90
7814;DHT22;3952;48.364;16.022;2022-07-06T03:40:55;15.90;99.90
7814;DHT22;3952;48.364;16.022;2022-07-06T03:43:22;15.90;99.90
7814;DHT22;3952;48.364;16.022;2022-07-06T03:45:49;16.00;99.90
7814;DHT22;3952;48.364;16.022;2022-07-06T03:48:16;16.00;99.90
7814;DHT22;3952;48.364;16.022;2022-07-06T03:50:44;15.90;99.90
7814;DHT22;3952;48.364;16.022;2022-07-06T03:53:11;15.90;99.90
7814;DHT22;3952;48.364;16.022;2022-07-06T03:55:40;15.90;99.90
7814;DHT22;3952;48.364;16.022;2022-07-06T03:58:07;15.80;99.90
7814;DHT22;3952;48.364;16.022;2022-07-06T04:00:34;15.80;99.90
7814;DHT22;3952;48.364;16.022;2022-07-06T04:03:01;15.90;99.90
7814;DHT22;3952;48.364;16.022;2022-07-06T04:05:28;15.90;99.90
7814;DHT22;3952;48.364;16.022;2022-07-06T04:07:56;15.90;99.90
7814;DHT22;3952;48.364;16.022;2022-07-06T04:10:23;15.90;99.90
7814;DHT22;3952;48.364;16.022;2022-07-06T04:12:51;15.90;99.90
7814;DHT22;3952;48.364;16.022;2022-07-06T04:15:18;15.90;99.90
7814;DHT22;3952;48.364;16.022;2022-07-06T04:17:46;16.00;99.90
7814;DHT22;3952;48.364;16.022;2022-07-06T04:20:19;16.00;99.90
7814;DHT22;3952;48.364;16.022;2022-07-06T04:22:47;16.10;99.90
7814;DHT22;3952;48.364;16.022;2022-07-06T04:25:14;16.10;99.90
7814;DHT22;3952;48.364;16.022;2022-07-06T04:27:42;16.20;99.90
7814;DHT22;3952;48.364;16.022;2022-07-06T04:30:11;16.30;99.90
7814;DHT22;3952;48.364;16.022;2022-07-06T04:32:39;16.40;99.90
7814;DHT22;3952;48.364;16.022;2022-07-06T04:35:07;16.50;99.90
7814;DHT22;3952;48.364;16.022;2022-07-06T04:37:34;16.50;99.90
7814;DHT22;3952;48.364;16.022;2022-07-06T04:40:01;16.60;99.90
7814;DHT22;3952;48.364;16.022;2022-07-06T04:42:28;16.60;99.90
7814;DHT22;3952;48.364;16.022;2022-07-06T04:44:56;16.70;99.90
7814;DHT22;3952;48.364;16.022;2022-07-06T04:47:24;16.70;99.90
7814;DHT22;3952;48.364;16.022;2022-07-06T04:49:52;16.70;99.90
7814;DHT22;3952;48.364;16.022;2022-07-06T04:52:19;16.70;99.90
7814;DHT22;3952;48.364;16.022;2022-07-06T04:54:46;16.80;99.90
7814;DHT22;3952;48.364;16.022;2022-07-06T04:57:13;16.80;99.90
7814;DHT22;3952;48.364;16.022;2022-07-06T04:59:40;16.80;99.90
7814;DHT22;3952;48.364;16.022;2022-07-06T05:02:07;16.80;99.90
7814;DHT22;3952;48.364;16.022;2022-07-06T05:04:36;16.90;99.90
7814;DHT22;3952;48.364;16.022;2022-07-06T05:07:04;16.90;99.90
7814;DHT22;3952;48.364;16.022;2022-07-06T05:09:31;17.00;99.90
7814;DHT22;3952;48.364;16.022;2022-07-06T05:11:58;17.00;99.90
7814;DHT22;3952;48.364;16.022;2022-07-06T05:14:26;17.10;99.90
7814;DHT22;3952;48.364;16.022;2022-07-06T05:16:53;17.20;99.90
7814;DHT22;3952;48.364;16.022;2022-07-06T05:19:20;17.20;99.90
7814;DHT22;3952;48.364;16.022;2022-07-06T05:21:49;17.30;99.90
7814;DHT22;3952;48.364;16.022;2022-07-06T05:24:16;17.40;99.90
7814;DHT22;3952;48.364;16.022;2022-07-06T05:26:45;17.40;99.90
7814;DHT22;3952;48.364;16.022;2022-07-06T05:29:12;17.50;99.90
7814;DHT22;3952;48.364;16.022;2022-07-06T05:31:39;17.50;99.90
7814;DHT22;3952;48.364;16.022;2022-07-06T05:34:06;17.60;99.90
7814;DHT22;3952;48.364;16.022;2022-07-06T05:36:34;17.70;99.90
7814;DHT22;3952;48.364;16.022;2022-07-06T05:39:02;17.70;99.90
7814;DHT22;3952;48.364;16.022;2022-07-06T05:41:30;17.70;99.90
7814;DHT22;3952;48.364;16.022;2022-07-06T05:43:57;17.70;99.90
7814;DHT22;3952;48.364;16.022;2022-07-06T05:46:24;17.80;99.90
7814;DHT22;3952;48.364;16.022;2022-07-06T05:48:51;17.90;99.90
7814;DHT22;3952;48.364;16.022;2022-07-06T05:51:36;18.00;99.90
7814;DHT22;3952;48.364;16.022;2022-07-06T05:54:04;18.20;99.90
7814;DHT22;3952;48.364;16.022;2022-07-06T05:56:31;18.30;99.90
7814;DHT22;3952;48.364;16.022;2022-07-06T05:58:59;18.40;99.90
7814;DHT22;3952;48.364;16.022;2022-07-06T06:01:26;18.50;99.90
7814;DHT22;3952;48.364;16.022;2022-07-06T06:03:53;18.60;99.90
7814;DHT22;3952;48.364;16.022;2022-07-06T06:06:20;18.80;99.90
7814;DHT22;3952;48.364;16.022;2022-07-06T06:08:47;18.90;99.90
7814;DHT22;3952;48.364;16.022;2022-07-06T06:11:16;19.00;99.90
7814;DHT22;3952;48.364;16.022;2022-07-06T06:13:43;19.00;99.90
7814;DHT22;3952;48.364;16.022;2022-07-06T06:16:10;19.00;99.90
7814;DHT22;3952;48.364;16.022;2022-07-06T06:18:37;19.00;99.90
7814;DHT22;3952;48.364;16.022;2022-07-06T06:21:05;19.00;99.90
7814;DHT22;3952;48.364;16.022;2022-07-06T06:23:32;19.10;99.90
7814;DHT22;3952;48.364;16.022;2022-07-06T06:25:59;19.10;99.90
7814;DHT22;3952;48.364;16.022;2022-07-06T06:28:28;19.20;99.90
7814;DHT22;3952;48.364;16.022;2022-07-06T06:30:55;19.30;99.90
7814;DHT22;3952;48.364;16.022;2022-07-06T06:33:22;19.40;99.90
7814;DHT22;3952;48.364;16.022;2022-07-06T06:35:50;19.50;99.90
7814;DHT22;3952;48.364;16.022;2022-07-06T06:38:18;19.70;99.90
7814;DHT22;3952;48.364;16.022;2022-07-06T06:40:46;19.80;99.90
7814;DHT22;3952;48.364;16.022;2022-07-06T06:43:13;19.90;99.90
7814;DHT22;3952;48.364;16.022;2022-07-06T06:45:42;20.00;99.90
7814;DHT22;3952;48.364;16.022;2022-07-06T06:48:10;20.10;99.90
7814;DHT22;3952;48.364;16.022;2022-07-06T06:50:37;20.10;99.90
7814;DHT22;3952;48.364;16.022;2022-07-06T06:53:04;20.20;99.90
7814;DHT22;3952;48.364;16.022;2022-07-06T06:55:31;20.30;99.90
7814;DHT22;3952;48.364;16.022;2022-07-06T06:57:58;20.40;99.90
7814;DHT22;3952;48.364;16.022;2022-07-06T07:00:26;20.50;99.90
7814;DHT22;3952;48.364;16.022;2022-07-06T07:02:54;20.50;99.90
7814;DHT22;3952;48.364;16.022;2022-07-06T07:05:21;20.60;99.90
7814;DHT22;3952;48.364;16.022;2022-07-06T07:07:48;20.60;99.90
7814;DHT22;3952;48.364;16.022;2022-07-06T07:10:16;20.70;99.90
7814;DHT22;3952;48.364;16.022;2022-07-06T07:12:44;20.70;99.90
7814;DHT22;3952;48.364;16.022;2022-07-06T07:15:12;20.80;99.90
7814;DHT22;3952;48.364;16.022;2022-07-06T07:17:39;20.90;99.90
7814;DHT22;3952;48.364;16.022;2022-07-06T07:20:09;21.00;99.90
7814;DHT22;3952;48.364;16.022;2022-07-06T07:22:36;21.10;99.90
7814;DHT22;3952;48.364;16.022;2022-07-06T07:25:05;21.20;99.90
7814;DHT22;3952;48.364;16.022;2022-07-06T07:27:32;21.30;99.90
7814;DHT22;3952;48.364;16.022;2022-07-06T07:29:59;21.40;99.90
7814;DHT22;3952;48.364;16.022;2022-07-06T07:32:27;21.50;99.90
7814;DHT22;3952;48.364;16.022;2022-07-06T07:34:54;21.70;99.90
7814;DHT22;3952;48.364;16.022;2022-07-06T07:37:22;21.90;99.90
7814;DHT22;3952;48.364;16.022;2022-07-06T07:39:50;21.90;99.90
7814;DHT22;3952;48.364;16.022;2022-07-06T07:42:17;22.00;99.90
7814;DHT22;3952;48.364;16.022;2022-07-06T07:44:44;22.20;99.90
7814;DHT22;3952;48.364;16.022;2022-07-06T07:47:11;22.30;99.90
7814;DHT22;3952;48.364;16.022;2022-07-06T07:49:39;22.40;99.90
7814;DHT22;3952;48.364;16.022;2022-07-06T07:52:06;22.50;99.90
7814;DHT22;3952;48.364;16.022;2022-07-06T07:54:35;22.70;99.90
7814;DHT22;3952;48.364;16.022;2022-07-06T07:57:02;22.80;99.90
7814;DHT22;3952;48.364;16.022;2022-07-06T07:59:30;23.00;99.90
7814;DHT22;3952;48.364;16.022;2022-07-06T08:01:57;23.10;99.90
7814;DHT22;3952;48.364;16.022;2022-07-06T08:04:24;23.10;99.90
7814;DHT22;3952;48.364;16.022;2022-07-06T08:06:51;23.20;99.90
7814;DHT22;3952;48.364;16.022;2022-07-06T08:09:19;23.40;99.90
7814;DHT22;3952;48.364;16.022;2022-07-06T08:11:47;23.40;99.90
7814;DHT22;3952;48.364;16.022;2022-07-06T08:14:15;23.30;99.90
7814;DHT22;3952;48.364;16.022;2022-07-06T08:16:42;23.60;99.90
7814;DHT22;3952;48.364;16.022;2022-07-06T08:19:10;23.70;99.90
7814;DHT22;3952;48.364;16.022;2022-07-06T08:21:40;23.80;99.90
7814;DHT22;3952;48.364;16.022;2022-07-06T08:24:08;23.90;99.90
7814;DHT22;3952;48.364;16.022;2022-07-06T08:26:35;24.00;99.90
7814;DHT22;3952;48.364;16.022;2022-07-06T08:29:04;24.10;99.90
7814;DHT22;3952;48.364;16.022;2022-07-06T08:31:32;24.20;99.90
7814;DHT22;3952;48.364;16.022;2022-07-06T08:34:00;24.30;99.90
7814;DHT22;3952;48.364;16.022;2022-07-06T08:36:27;24.40;99.90
7814;DHT22;3952;48.364;16.022;2022-07-06T08:38:55;24.50;99.90
7814;DHT22;3952;48.364;16.022;2022-07-06T08:41:25;24.60;99.90
7814;DHT22;3952;48.364;16.022;2022-07-06T08:43:52;24.70;99.90
7814;DHT22;3952;48.364;16.022;2022-07-06T08:46:22;24.70;99.90
7814;DHT22;3952;48.364;16.022;2022-07-06T08:48:49;24.80;99.90
7814;DHT22;3952;48.364;16.022;2022-07-06T08:51:17;25.00;99.90
7814;DHT22;3952;48.364;16.022;2022-07-06T08:53:45;25.00;99.90
7814;DHT22;3952;48.364;16.022;2022-07-06T08:56:15;25.10;99.90
7814;DHT22;3952;48.364;16.022;2022-07-06T08:58:43;25.20;99.90
7814;DHT22;3952;48.364;16.022;2022-07-06T09:01:11;25.30;99.90
7814;DHT22;3952;48.364;16.022;2022-07-06T09:03:41;25.50;99.90
7814;DHT22;3952;48.364;16.022;2022-07-06T09:06:08;25.50;99.90
7814;DHT22;3952;48.364;16.022;2022-07-06T09:08:36;25.50;99.90
7814;DHT22;3952;48.364;16.022;2022-07-06T09:11:04;25.60;99.90
7814;DHT22;3952;48.364;16.022;2022-07-06T09:13:31;25.70;99.90
7814;DHT22;3952;48.364;16.022;2022-07-06T09:16:09;25.80;99.90
7814;DHT22;3952;48.364;16.022;2022-07-06T09:18:37;25.90;99.90
7814;DHT22;3952;48.364;16.022;2022-07-06T09:21:06;25.90;99.90
7814;DHT22;3952;48.364;16.022;2022-07-06T09:23:33;25.90;99.90
7814;DHT22;3952;48.364;16.022;2022-07-06T09:26:02;26.10;99.90
7814;DHT22;3952;48.364;16.022;2022-07-06T09:28:41;26.20;99.90
7814;DHT22;3952;48.364;16.022;2022-07-06T09:31:09;26.20;99.90
7814;DHT22;3952;48.364;16.022;2022-07-06T09:33:36;26.30;99.90
7814;DHT22;3952;48.364;16.022;2022-07-06T09:36:06;26.30;99.90
7814;DHT22;3952;48.364;16.022;2022-07-06T09:38:33;26.30;99.90
7814;DHT22;3952;48.364;16.022;2022-07-06T09:41:00;26.20;99.90
7814;DHT22;3952;48.364;16.022;2022-07-06T09:43:29;26.10;99.90
7814;DHT22;3952;48.364;16.022;2022-07-06T09:45:59;25.90;99.90
7814;DHT22;3952;48.364;16.022;2022-07-06T09:48:27;25.80;99.90
7814;DHT22;3952;48.364;16.022;2022-07-06T09:50:56;25.70;99.90
7814;DHT22;3952;48.364;16.022;2022-07-06T09:53:27;25.60;99.90
7814;DHT22;3952;48.364;16.022;2022-07-06T09:55:57;25.70;99.90
7814;DHT22;3952;48.364;16.022;2022-07-06T09:58:25;25.80;99.90
7814;DHT22;3952;48.364;16.022;2022-07-06T10:00:52;25.90;99.90
7814;DHT22;3952;48.364;16.022;2022-07-06T10:03:19;25.90;99.90
7814;DHT22;3952;48.364;16.022;2022-07-06T10:05:48;25.70;99.90
7814;DHT22;3952;48.364;16.022;2022-07-06T10:08:17;25.70;99.90
7814;DHT22;3952;48.364;16.022;2022-07-06T10:10:46;25.60;99.90
7814;DHT22;3952;48.364;16.022;2022-07-06T10:13:19;25.70;99.90
7814;DHT22;3952;48.364;16.022;2022-07-06T10:15:48;25.80;99.90
7814;DHT22;3952;48.364;16.022;2022-07-06T10:18:16;25.90;99.90
7814;DHT22;3952;48.364;16.022;2022-07-06T10:20:43;25.90;99.90
7814;DHT22;3952;48.364;16.022;2022-07-06T10:23:11;26.00;99.90
7814;DHT22;3952;48.364;16.022;2022-07-06T10:25:39;26.10;99.90
7814;DHT22;3952;48.364;16.022;2022-07-06T10:28:07;26.20;99.90
7814;DHT22;3952;48.364;16.022;2022-07-06T10:30:41;26.30;99.90
7814;DHT22;3952;48.364;16.022;2022-07-06T10:33:09;26.50;99.90
7814;DHT22;3952;48.364;16.022;2022-07-06T10:35:40;26.50;99.90
7814;DHT22;3952;48.364;16.022;2022-07-06T10:38:09;26.60;99.90
7814;DHT22;3952;48.364;16.022;2022-07-06T10:40:38;26.50;99.90
7814;DHT22;3952;48.364;16.022;2022-07-06T10:43:31;26.40;99.90
7814;DHT22;3952;48.364;16.022;2022-07-06T10:45:58;26.30;99.90
7814;DHT22;3952;48.364;16.022;2022-07-06T10:48:34;26.20;99.90
7814;DHT22;3952;48.364;16.022;2022-07-06T10:51:02;26.20;99.90
7814;DHT22;3952;48.364;16.022;2022-07-06T10:53:32;26.20;99.90
7814;DHT22;3952;48.364;16.022;2022-07-06T10:56:03;26.10;99.90
7814;DHT22;3952;48.364;16.022;2022-07-06T10:58:41;26.10;99.90
7814;DHT22;3952;48.364;16.022;2022-07-06T11:01:12;26.30;99.90
7814;DHT22;3952;48.364;16.022;2022-07-06T11:03:42;26.30;99.90
7814;DHT22;3952;48.364;16.022;2022-07-06T11:06:13;26.30;99.90
7814;DHT22;3952;48.364;16.022;2022-07-06T11:08:53;26.40;99.90
7814;DHT22;3952;48.364;16.022;2022-07-06T11:11:23;26.40;99.90
7814;DHT22;3952;48.364;16.022;2022-07-06T11:13:54;26.60;99.90
7814;DHT22;3952;48.364;16.022;2022-07-06T11:16:23;26.70;99.90
7814;DHT22;3952;48.364;16.022;2022-07-06T11:19:03;26.90;99.90
7814;DHT22;3952;48.364;16.022;2022-07-06T11:21:40;26.90;99.90
7814;DHT22;3952;48.364;16.022;2022-07-06T11:24:09;26.90;99.90
7814;DHT22;3952;48.364;16.022;2022-07-06T11:26:37;26.80;99.90
7814;DHT22;3952;48.364;16.022;2022-07-06T11:29:09;26.70;99.90
7814;DHT22;3952;48.364;16.022;2022-07-06T11:31:37;26.60;99.90
7814;DHT22;3952;48.364;16.022;2022-07-06T11:34:05;26.40;99.90
7814;DHT22;3952;48.364;16.022;2022-07-06T11:36:33;26.50;99.90
7814;DHT22;3952;48.364;16.022;2022-07-06T11:39:00;26.40;99.90
7814;DHT22;3952;48.364;16.022;2022-07-06T11:41:28;26.40;99.90
7814;DHT22;3952;48.364;16.022;2022-07-06T11:43:55;26.40;99.90
7814;DHT22;3952;48.364;16.022;2022-07-06T11:46:25;26.40;99.90
7814;DHT22;3952;48.364;16.022;2022-07-06T11:48:54;26.40;99.90
7814;DHT22;3952;48.364;16.022;2022-07-06T11:51:23;26.40;99.90
7814;DHT22;3952;48.364;16.022;2022-07-06T11:53:53;26.30;99.90
7814;DHT22;3952;48.364;16.022;2022-07-06T11:56:21;26.10;99.90
7814;DHT22;3952;48.364;16.022;2022-07-06T11:58:52;26.00;99.90
7814;DHT22;3952;48.364;16.022;2022-07-06T12:01:20;26.00;99.90
7814;DHT22;3952;48.364;16.022;2022-07-06T12:03:49;26.10;99.90
7814;DHT22;3952;48.364;16.022;2022-07-06T12:06:18;26.10;99.90
7814;DHT22;3952;48.364;16.022;2022-07-06T12:08:47;26.10;99.90
7814;DHT22;3952;48.364;16.022;2022-07-06T12:11:23;26.10;99.90
7814;DHT22;3952;48.364;16.022;2022-07-06T12:13:52;26.10;99.90
7814;DHT22;3952;48.364;16.022;2022-07-06T12:16:20;26.10;99.90
7814;DHT22;3952;48.364;16.022;2022-07-06T12:18:50;26.10;99.70
7814;DHT22;3952;48.364;16.022;2022-07-06T12:21:19;26.10;99.90
7814;DHT22;3952;48.364;16.022;2022-07-06T12:23:49;26.00;99.10
7814;DHT22;3952;48.364;16.022;2022-07-06T12:26:17;25.90;98.70
7814;DHT22;3952;48.364;16.022;2022-07-06T12:28:45;25.90;99.50
7814;DHT22;3952;48.364;16.022;2022-07-06T12:31:30;26.00;99.40
7814;DHT22;3952;48.364;16.022;2022-07-06T12:33:59;25.90;98.10
7814;DHT22;3952;48.364;16.022;2022-07-06T12:36:27;25.90;98.60
7814;DHT22;3952;48.364;16.022;2022-07-06T12:38:54;26.00;99.20
7814;DHT22;3952;48.364;16.022;2022-07-06T12:41:31;26.00;98.80
7814;DHT22;3952;48.364;16.022;2022-07-06T12:44:07;26.00;98.70
7814;DHT22;3952;48.364;16.022;2022-07-06T12:46:37;25.90;97.20
7814;DHT22;3952;48.364;16.022;2022-07-06T12:49:14;25.80;97.20
7814;DHT22;3952;48.364;16.022;2022-07-06T12:51:58;25.70;96.80
7814;DHT22;3952;48.364;16.022;2022-07-06T12:54:28;25.60;96.20
7814;DHT22;3952;48.364;16.022;2022-07-06T12:59:43;25.60;97.90
7814;DHT22;3952;48.364;16.022;2022-07-06T13:02:18;25.60;98.30
7814;DHT22;3952;48.364;16.022;2022-07-06T13:04:56;25.60;98.50
7814;DHT22;3952;48.364;16.022;2022-07-06T13:07:24;25.70;98.60
7814;DHT22;3952;48.364;16.022;2022-07-06T13:09:52;25.70;98.30
7814;DHT22;3952;48.364;16.022;2022-07-06T13:12:20;25.70;98.50
7814;DHT22;3952;48.364;16.022;2022-07-06T13:14:48;25.80;97.80
7814;DHT22;3952;48.364;16.022;2022-07-06T13:17:16;25.70;97.60
7814;DHT22;3952;48.364;16.022;2022-07-06T13:19:43;25.70;97.70
7814;DHT22;3952;48.364;16.022;2022-07-06T13:22:12;25.60;97.50
7814;DHT22;3952;48.364;16.022;2022-07-06T13:24:39;25.50;96.80
7814;DHT22;3952;48.364;16.022;2022-07-06T13:27:07;25.50;97.80
7814;DHT22;3952;48.364;16.022;2022-07-06T13:29:34;25.40;99.90
7814;DHT22;3952;48.364;16.022;2022-07-06T13:32:01;25.40;99.90
7814;DHT22;3952;48.364;16.022;2022-07-06T13:34:28;25.30;99.90
7814;DHT22;3952;48.364;16.022;2022-07-06T13:36:56;25.40;99.90
7814;DHT22;3952;48.364;16.022;2022-07-06T13:39:24;25.30;99.90
7814;DHT22;3952;48.364;16.022;2022-07-06T13:41:53;25.20;99.90
7814;DHT22;3952;48.364;16.022;2022-07-06T13:44:20;25.20;99.90
7814;DHT22;3952;48.364;16.022;2022-07-06T13:46:47;25.10;99.90
7814;DHT22;3952;48.364;16.022;2022-07-06T13:49:15;24.90;99.90
7814;DHT22;3952;48.364;16.022;2022-07-06T13:51:42;24.70;99.90
7814;DHT22;3952;48.364;16.022;2022-07-06T13:54:10;24.60;99.90
7814;DHT22;3952;48.364;16.022;2022-07-06T13:56:39;24.50;99.90
7814;DHT22;3952;48.364;16.022;2022-07-06T13:59:06;24.40;99.90
7814;DHT22;3952;48.364;16.022;2022-07-06T14:01:34;24.10;99.90
7814;DHT22;3952;48.364;16.022;2022-07-06T14:04:01;24.10;99.90
7814;DHT22;3952;48.364;16.022;2022-07-06T14:06:28;23.90;99.90
7814;DHT22;3952;48.364;16.022;2022-07-06T14:08:55;23.80;99.90
7814;DHT22;3952;48.364;16.022;2022-07-06T14:11:22;23.80;99.90
7814;DHT22;3952;48.364;16.022;2022-07-06T14:13:51;23.60;99.90
7814;DHT22;3952;48.364;16.022;2022-07-06T14:16:18;23.40;99.90
7814;DHT22;3952;48.364;16.022;2022-07-06T14:18:45;23.20;99.90
7814;DHT22;3952;48.364;16.022;2022-07-06T14:21:12;23.00;99.90
7814;DHT22;3952;48.364;16.022;2022-07-06T14:23:40;23.00;99.90
7814;DHT22;3952;48.364;16.022;2022-07-06T14:26:07;23.00;99.90
7814;DHT22;3952;48.364;16.022;2022-07-06T14:28:35;22.90;99.90
7814;DHT22;3952;48.364;16.022;2022-07-06T14:31:04;22.90;99.90
7814;DHT22;3952;48.364;16.022;2022-07-06T14:33:31;23.00;99.90
7814;DHT22;3952;48.364;16.022;2022-07-06T14:35:58;22.90;99.90
7814;DHT22;3952;48.364;16.022;2022-07-06T14:38:26;23.00;99.90
7814;DHT22;3952;48.364;16.022;2022-07-06T14:40:54;22.90;99.90
7814;DHT22;3952;48.364;16.022;2022-07-06T14:43:21;22.90;99.90
7814;DHT22;3952;48.364;16.022;2022-07-06T14:45:48;22.80;99.90
7814;DHT22;3952;48.364;16.022;2022-07-06T14:48:17;22.90;99.90
7814;DHT22;3952;48.364;16.022;2022-07-06T14:50:44;23.00;99.90
7814;DHT22;3952;48.364;16.022;2022-07-06T14:53:11;23.10;99.90
7814;DHT22;3952;48.364;16.022;2022-07-06T14:55:38;23.20;99.90
7814;DHT22;3952;48.364;16.022;2022-07-06T14:58:05;23.20;99.90
7814;DHT22;3952;48.364;16.022;2022-07-06T15:00:33;23.20;99.90
7814;DHT22;3952;48.364;16.022;2022-07-06T15:03:00;23.30;99.90
7814;DHT22;3952;48.364;16.022;2022-07-06T15:05:28;23.40;99.90
7814;DHT22;3952;48.364;16.022;2022-07-06T15:07:56;23.50;99.90
7814;DHT22;3952;48.364;16.022;2022-07-06T15:10:23;23.60;99.90
7814;DHT22;3952;48.364;16.022;2022-07-06T15:12:51;23.60;99.90
7814;DHT22;3952;48.364;16.022;2022-07-06T15:15:18;23.70;99.90
7814;DHT22;3952;48.364;16.022;2022-07-06T15:17:45;23.70;99.90
7814;DHT22;3952;48.364;16.022;2022-07-06T15:20:12;23.80;99.90
7814;DHT22;3952;48.364;16.022;2022-07-06T15:22:43;23.80;99.90
7814;DHT22;3952;48.364;16.022;2022-07-06T15:25:11;23.70;99.90
7814;DHT22;3952;48.364;16.022;2022-07-06T15:27:38;23.80;99.90
7814;DHT22;3952;48.364;16.022;2022-07-06T15:30:06;23.80;99.90
7814;DHT22;3952;48.364;16.022;2022-07-06T15:32:33;23.80;99.90
7814;DHT22;3952;48.364;16.022;2022-07-06T15:35:00;23.80;99.90
7814;DHT22;3952;48.364;16.022;2022-07-06T15:37:30;23.80;99.90
7814;DHT22;3952;48.364;16.022;2022-07-06T15:39:59;23.70;99.90
7814;DHT22;3952;48.364;16.022;2022-07-06T15:42:26;23.70;99.90
7814;DHT22;3952;48.364;16.022;2022-07-06T15:44:53;23.60;99.90
7814;DHT22;3952;48.364;16.022;2022-07-06T15:47:20;23.70;99.90
7814;DHT22;3952;48.364;16.022;2022-07-06T15:49:49;23.70;99.90
7814;DHT22;3952;48.364;16.022;2022-07-06T15:52:16;23.80;99.90
7814;DHT22;3952;48.364;16.022;2022-07-06T15:54:44;23.90;99.90